Torre De Bel M — CSIO — position and weather

sailwx.info

Track history (hours):
 
Tides and Currents Weather Stations Pressure Air Temp Water Temp Dewpoint Dewpoint Depression Visibility Wind Speed Wind Dir Waves Ship Positions

Torre De Bel M

Last reported at 2014-Sep-19 11:32 UTC. Time now 2014-Sep-21 02:09 UTC.
Position N 38°41' W 009°19'.

Length 13 m; draft 1.1 m.

Type: Pilot. MMSI: 263671850.

Date/timePositionNaut miles runAvg speedWind from/ knotsBaromVisibWave heightAir tempDewpointWater temp
2014-Sep-19 11:32N 38°41' W 009°19'4 3.5
2014-Sep-19 10:28N 38°42' W 009°14'0 0.0
2014-Sep-19 09:28N 38°42' W 009°14'0 0.0
2014-Sep-19 08:33N 38°42' W 009°14'2 2.2
2014-Sep-19 07:33N 38°41' W 009°12'2 0.1
2014-Sep-18 10:15N 38°42' W 009°14'0 0.0
2014-Sep-18 06:07N 38°42' W 009°14'0 0.0
2014-Sep-17 09:33N 38°41' W 009°14'0 0.5
2014-Sep-17 08:29N 38°42' W 009°14'2 1.7
2014-Sep-17 07:33N 38°41' W 009°12'4 4.0
2014-Sep-17 06:32N 38°41' W 009°18'3 3.0
2014-Sep-17 05:33N 38°42' W 009°14'0 0.0
2014-Sep-17 04:32N 38°42' W 009°14'0 0.0
2014-Sep-17 03:33N 38°42' W 009°14'0 0.0
2014-Sep-17 02:33N 38°42' W 009°14'0 0.0
2014-Sep-17 01:31N 38°42' W 009°14'0 0.0
2014-Sep-17 00:31N 38°42' W 009°14'1 1.5
2014-Sep-16 23:34N 38°41' W 009°13'1 0.4
2014-Sep-16 20:22N 38°42' W 009°14'1 1.5
2014-Sep-16 19:33N 38°41' W 009°14'1 1.5
2014-Sep-16 18:33N 38°41' W 009°16'2 1.5
2014-Sep-16 17:09N 38°40' W 009°18'4 7.5
2014-Sep-16 16:34N 38°41' W 009°13'0 0.2
2014-Sep-16 14:33N 38°41' W 009°13'1 0.5
2014-Sep-16 13:04N 38°42' W 009°14'3 1.8
2014-Sep-16 11:33N 38°41' W 009°18'3 0.8
2014-Sep-16 08:10N 38°42' W 009°14'0 0.0
2014-Sep-16 07:33N 38°42' W 009°14'0 0.4
2014-Sep-16 06:33N 38°41' W 009°14'2 1.0
2014-Sep-16 04:33N 38°41' W 009°17'2 2.3
2014-Sep-16 03:32N 38°42' W 009°14'0 0.0
2014-Sep-16 02:33N 38°42' W 009°14'0 0.0
2014-Sep-16 01:33N 38°42' W 009°14'0 0.0
2014-Sep-16 00:33N 38°42' W 009°14'1 0.9
2014-Sep-15 23:33N 38°42' W 009°15'1 0.9
2014-Sep-15 22:33N 38°42' W 009°14'4 0.4
2014-Sep-15 13:31N 38°41' W 009°19'4 0.6
2014-Sep-15 06:33N 38°42' W 009°14'0 0.3
2014-Sep-15 05:33N 38°42' W 009°14'0 0.0
2014-Sep-14 22:32N 38°42' W 009°14'0 0.0
2014-Sep-14 20:34N 38°42' W 009°14'0 0.0
2014-Sep-14 18:25N 38°42' W 009°14'1 1.2
2014-Sep-14 17:34N 38°41' W 009°13'1 0.1
2014-Sep-14 07:09N 38°42' W 009°14'0 0.0
2014-Sep-13 20:26N 38°42' W 009°14'0 0.0
2014-Sep-13 19:32N 38°42' W 009°14'0 0.2
2014-Sep-13 18:33N 38°42' W 009°14'0 0.0
2014-Sep-13 10:24N 38°42' W 009°14'  
2014-Sep-10 22:13N 38°41' W 009°19'4 0.8
2014-Sep-10 17:31N 38°42' W 009°14'0 0.0
2014-Sep-10 16:33N 38°42' W 009°14'0 0.0
2014-Sep-10 15:33N 38°42' W 009°14'2 1.8
2014-Sep-10 14:33N 38°42' W 009°12'2 1.8
2014-Sep-10 13:33N 38°41' W 009°14'1 1.0
2014-Sep-10 12:33N 38°42' W 009°14'2 2.2
2014-Sep-10 11:33N 38°42' W 009°17'2 2.2
2014-Sep-10 10:33N 38°42' W 009°14'2 1.5
2014-Sep-10 09:33N 38°41' W 009°12'1 0.6
2014-Sep-10 08:33N 38°41' W 009°12'2 2.0
2014-Sep-10 07:33N 38°42' W 009°14'0 0.0
2014-Sep-09 16:23N 38°42' W 009°14'3 3.2
2014-Sep-09 15:25N 38°40' W 009°18'3 3.5
2014-Sep-09 14:31N 38°42' W 009°14'0 0.0
2014-Sep-09 13:20N 38°42' W 009°14'2 2.3
2014-Sep-09 12:33N 38°41' W 009°16'4 4.2
2014-Sep-09 11:33N 38°41' W 009°11'  
Track history (hours):
 
Tides and Currents Weather Stations Pressure Air Temp Water Temp Dewpoint Dewpoint Depression Visibility Wind Speed Wind Dir Waves Ship Positions

Torre De Bel M

Last reported at 2014-Sep-19 11:32 UTC. Time now 2014-Sep-21 02:09 UTC.
Position N 38°41' W 009°19'.

Length 13 m; draft 1.1 m.

Type: Pilot. MMSI: 263671850.

Date/timePositionNaut miles runAvg speedWind from/ knotsBaromVisibWave heightAir tempDewpointWater temp
2014-Sep-19 11:32N 38°41' W 009°19'4 3.5
2014-Sep-19 10:28N 38°42' W 009°14'0 0.0
2014-Sep-19 09:28N 38°42' W 009°14'0 0.0
2014-Sep-19 08:33N 38°42' W 009°14'2 2.2
2014-Sep-19 07:33N 38°41' W 009°12'2 0.1
2014-Sep-18 10:15N 38°42' W 009°14'0 0.0
2014-Sep-18 06:07N 38°42' W 009°14'0 0.0
2014-Sep-17 09:33N 38°41' W 009°14'0 0.5
2014-Sep-17 08:29N 38°42' W 009°14'2 1.7
2014-Sep-17 07:33N 38°41' W 009°12'4 4.0
2014-Sep-17 06:32N 38°41' W 009°18'3 3.0
2014-Sep-17 05:33N 38°42' W 009°14'0 0.0
2014-Sep-17 04:32N 38°42' W 009°14'0 0.0
2014-Sep-17 03:33N 38°42' W 009°14'0 0.0
2014-Sep-17 02:33N 38°42' W 009°14'0 0.0
2014-Sep-17 01:31N 38°42' W 009°14'0 0.0
2014-Sep-17 00:31N 38°42' W 009°14'1 1.5
2014-Sep-16 23:34N 38°41' W 009°13'1 0.4
2014-Sep-16 20:22N 38°42' W 009°14'1 1.5
2014-Sep-16 19:33N 38°41' W 009°14'1 1.5
2014-Sep-16 18:33N 38°41' W 009°16'2 1.5
2014-Sep-16 17:09N 38°40' W 009°18'4 7.5
2014-Sep-16 16:34N 38°41' W 009°13'0 0.2
2014-Sep-16 14:33N 38°41' W 009°13'1 0.5
2014-Sep-16 13:04N 38°42' W 009°14'3 1.8
2014-Sep-16 11:33N 38°41' W 009°18'3 0.8
2014-Sep-16 08:10N 38°42' W 009°14'0 0.0
2014-Sep-16 07:33N 38°42' W 009°14'0 0.4
2014-Sep-16 06:33N 38°41' W 009°14'2 1.0
2014-Sep-16 04:33N 38°41' W 009°17'2 2.3
2014-Sep-16 03:32N 38°42' W 009°14'0 0.0
2014-Sep-16 02:33N 38°42' W 009°14'0 0.0
2014-Sep-16 01:33N 38°42' W 009°14'0 0.0
2014-Sep-16 00:33N 38°42' W 009°14'1 0.9
2014-Sep-15 23:33N 38°42' W 009°15'1 0.9
2014-Sep-15 22:33N 38°42' W 009°14'4 0.4
2014-Sep-15 13:31N 38°41' W 009°19'4 0.6
2014-Sep-15 06:33N 38°42' W 009°14'0 0.3
2014-Sep-15 05:33N 38°42' W 009°14'0 0.0
2014-Sep-14 22:32N 38°42' W 009°14'0 0.0
2014-Sep-14 20:34N 38°42' W 009°14'0 0.0
2014-Sep-14 18:25N 38°42' W 009°14'1 1.2
2014-Sep-14 17:34N 38°41' W 009°13'1 0.1
2014-Sep-14 07:09N 38°42' W 009°14'0 0.0
2014-Sep-13 20:26N 38°42' W 009°14'0 0.0
2014-Sep-13 19:32N 38°42' W 009°14'0 0.2
2014-Sep-13 18:33N 38°42' W 009°14'0 0.0
2014-Sep-13 10:24N 38°42' W 009°14'  
2014-Sep-10 22:13N 38°41' W 009°19'4 0.8
2014-Sep-10 17:31N 38°42' W 009°14'0 0.0
2014-Sep-10 16:33N 38°42' W 009°14'0 0.0
2014-Sep-10 15:33N 38°42' W 009°14'2 1.8
2014-Sep-10 14:33N 38°42' W 009°12'2 1.8
2014-Sep-10 13:33N 38°41' W 009°14'1 1.0
2014-Sep-10 12:33N 38°42' W 009°14'2 2.2
2014-Sep-10 11:33N 38°42' W 009°17'2 2.2
2014-Sep-10 10:33N 38°42' W 009°14'2 1.5
2014-Sep-10 09:33N 38°41' W 009°12'1 0.6
2014-Sep-10 08:33N 38°41' W 009°12'2 2.0
2014-Sep-10 07:33N 38°42' W 009°14'0 0.0
2014-Sep-09 16:23N 38°42' W 009°14'3 3.2
2014-Sep-09 15:25N 38°40' W 009°18'3 3.5
2014-Sep-09 14:31N 38°42' W 009°14'0 0.0
2014-Sep-09 13:20N 38°42' W 009°14'2 2.3
2014-Sep-09 12:33N 38°41' W 009°16'4 4.2
2014-Sep-09 11:33N 38°41' W 009°11'  

Dump ship's entire track history